createdAt,value
2023-02-18T00:01:51.657Z,99886.13
2023-02-18T00:03:53.481Z,99846.72
2023-02-18T00:05:55.209Z,99877.00
2023-02-18T00:07:56.990Z,99874.66
2023-02-18T00:09:58.442Z,99881.47
2023-02-18T00:11:59.858Z,99890.22
2023-02-18T00:14:03.617Z,99873.47
2023-02-18T00:16:07.904Z,99882.78
2023-02-18T00:18:09.542Z,99895.97
2023-02-18T00:20:11.443Z,99904.13
2023-02-18T00:22:12.852Z,99911.91
2023-02-18T00:24:15.960Z,99904.72
2023-02-18T00:26:19.095Z,99914.16
2023-02-18T00:28:20.509Z,99912.34
2023-02-18T00:30:21.972Z,99915.25
2023-02-18T00:32:23.412Z,99915.25
2023-02-18T00:34:24.862Z,99917.56
2023-02-18T00:36:26.691Z,99916.91
2023-02-18T00:38:28.360Z,99890.44
2023-02-18T00:40:29.755Z,99933.53
2023-02-18T00:42:31.162Z,99927.00
2023-02-18T00:44:32.741Z,99899.72
2023-02-18T00:46:34.579Z,99929.13
2023-02-18T00:48:36.114Z,99928.94
2023-02-18T00:50:37.760Z,99916.34
2023-02-18T00:52:39.174Z,99904.19
2023-02-18T00:54:40.704Z,99893.50
2023-02-18T00:56:42.650Z,99916.94
2023-02-18T00:58:44.100Z,99924.97
2023-02-18T01:00:46.233Z,99908.75
2023-02-18T01:02:47.815Z,99906.38
2023-02-18T01:04:49.406Z,99917.06
2023-02-18T01:06:50.847Z,99876.06
2023-02-18T01:08:52.436Z,99898.22
2023-02-18T01:10:56.218Z,99905.44
2023-02-18T01:12:57.624Z,99906.25
2023-02-18T01:14:59.588Z,99916.94
2023-02-18T01:17:01.009Z,99904.03
2023-02-18T01:19:02.404Z,99915.97
2023-02-18T01:21:04.497Z,99902.09
2023-02-18T01:23:06.001Z,99905.28
2023-02-18T01:25:08.820Z,99901.25
2023-02-18T01:27:10.325Z,99870.38
2023-02-18T01:29:11.725Z,99913.06
2023-02-18T01:31:14.313Z,99906.41
2023-02-18T01:33:15.917Z,99912.22
2023-02-18T01:35:20.033Z,99908.75
2023-02-18T01:37:21.713Z,99903.34
2023-02-18T01:39:23.234Z,99891.84
2023-02-18T01:41:24.881Z,99905.03
2023-02-18T01:43:26.319Z,99887.56
2023-02-18T01:45:33.731Z,99919.69
2023-02-18T01:47:35.188Z,99908.06
2023-02-18T01:49:38.486Z,99913.31
2023-02-18T01:51:44.036Z,99897.38
2023-02-18T01:53:50.832Z,99904.31
2023-02-18T01:55:52.265Z,99884.88
2023-02-18T01:57:54.525Z,99898.50
2023-02-18T02:00:03.774Z,99903.63
2023-02-18T02:02:08.540Z,99906.13
2023-02-18T02:04:10.330Z,99917.50
2023-02-18T02:06:19.092Z,99893.22
2023-02-18T02:08:20.593Z,99884.09
2023-02-18T02:10:22.209Z,99899.19
2023-02-18T02:12:48.260Z,99905.16
2023-02-18T02:15:17.440Z,99911.53
2023-02-18T02:17:40.030Z,99917.06
2023-02-18T02:19:50.643Z,99906.69
2023-02-18T02:21:57.844Z,99914.44
2023-02-18T02:24:43.954Z,99910.97
2023-02-18T02:27:13.262Z,99923.03
2023-02-18T02:30:05.614Z,99917.63
2023-02-18T02:32:23.360Z,99905.16
2023-02-18T02:34:41.598Z,99907.66
2023-02-18T02:36:55.253Z,99919.84
2023-02-18T02:39:07.899Z,99925.25
2023-02-18T02:41:24.118Z,99926.34
2023-02-18T02:43:50.246Z,99928.84
2023-02-18T02:46:02.429Z,99924.97
2023-02-18T02:48:03.802Z,99930.25
2023-02-18T02:50:37.342Z,99927.47
2023-02-18T02:52:46.151Z,99946.03
2023-02-18T02:54:47.618Z,99925.06
2023-02-18T02:56:49.596Z,99933.53
2023-02-18T02:59:00.522Z,99935.72
2023-02-18T03:01:04.576Z,99942.13
2023-02-18T03:03:22.127Z,99931.97
2023-02-18T03:05:26.574Z,99940.44
2023-02-18T03:08:06.874Z,99943.47
2023-02-18T03:10:29.186Z,99950.22
2023-02-18T03:12:40.766Z,99953.16
2023-02-18T03:14:42.119Z,99953.81
2023-02-18T03:17:03.050Z,99955.78
2023-02-18T03:19:10.051Z,99963.81
2023-02-18T03:21:18.763Z,99965.72
2023-02-18T03:23:25.556Z,99958.25
2023-02-18T03:25:28.343Z,99939.53
2023-02-18T03:27:34.759Z,99957.69
2023-02-18T03:29:36.859Z,99955.63
2023-02-18T03:31:41.079Z,99977.03
2023-02-18T03:33:57.218Z,99982.88
2023-02-18T03:35:59.082Z,99976.91
2023-02-18T03:38:08.339Z,99986.47
2023-02-18T03:40:10.946Z,99976.75
2023-02-18T03:42:12.506Z,99968.00
2023-02-18T03:44:13.938Z,99993.50
2023-02-18T03:46:15.491Z,99988.38
2023-02-18T03:48:17.266Z,99929.53
2023-02-18T03:50:19.270Z,99969.91
2023-02-18T03:52:20.765Z,100002.63
2023-02-18T03:54:22.267Z,99989.03
2023-02-18T03:56:25.158Z,99971.09
2023-02-18T03:58:26.570Z,99978.22
2023-02-18T04:00:28.213Z,99997.69
2023-02-18T04:02:29.622Z,100004.69
2023-02-18T04:04:31.088Z,99985.38
2023-02-18T04:06:32.785Z,100002.03
2023-02-18T04:08:34.539Z,99979.97
2023-02-18T04:10:35.933Z,100000.00
2023-02-18T04:12:37.460Z,99977.19
2023-02-18T04:14:38.886Z,99989.94
2023-02-18T04:16:41.045Z,99992.97
2023-02-18T04:18:42.650Z,99948.97
2023-02-18T04:20:44.664Z,99990.69
2023-02-18T04:22:46.056Z,100024.22
2023-02-18T04:24:47.695Z,100013.81
2023-02-18T04:26:49.086Z,100020.03
2023-02-18T04:28:50.559Z,100008.44
2023-02-18T04:30:52.105Z,99995.66
2023-02-18T04:32:53.546Z,99983.31
2023-02-18T04:34:54.977Z,99999.44
2023-02-18T04:36:56.387Z,100012.94
2023-02-18T04:38:57.802Z,100016.56
2023-02-18T04:40:59.243Z,100038.06
2023-02-18T04:43:01.236Z,100004.09
2023-02-18T04:45:03.071Z,100000.69
2023-02-18T04:47:06.244Z,100007.53
2023-02-18T04:49:07.648Z,99991.72
2023-02-18T04:51:09.193Z,100008.22
2023-02-18T04:53:10.614Z,100000.16
2023-02-18T04:55:12.088Z,100015.16
2023-02-18T04:57:13.513Z,100014.63
2023-02-18T04:59:15.260Z,100018.34
2023-02-18T05:01:16.721Z,99962.28
2023-02-18T05:03:18.215Z,100017.25
2023-02-18T05:05:19.767Z,100004.97
2023-02-18T05:07:21.315Z,100016.50
2023-02-18T05:09:22.869Z,100018.84
2023-02-18T05:11:24.289Z,100014.06
2023-02-18T05:13:25.730Z,100018.72
2023-02-18T05:15:27.138Z,100001.00
2023-02-18T05:17:28.533Z,100011.50
2023-02-18T05:19:30.035Z,100017.34
2023-02-18T05:21:31.820Z,100021.91
2023-02-18T05:23:33.474Z,100019.59
2023-02-18T05:25:37.984Z,100013.06
2023-02-18T05:27:39.468Z,100026.91
2023-02-18T05:29:40.889Z,100021.16
2023-02-18T05:31:42.491Z,100034.34
2023-02-18T05:33:43.979Z,100056.00
2023-02-18T05:35:45.372Z,100054.63
2023-02-18T05:37:46.766Z,100062.28
2023-02-18T05:39:48.160Z,100064.78
2023-02-18T05:41:49.593Z,100055.53
2023-02-18T05:43:51.172Z,100042.44
2023-02-18T05:45:52.583Z,100041.44
2023-02-18T05:47:54.031Z,100059.50
2023-02-18T05:49:55.449Z,100054.75
2023-02-18T05:51:57.442Z,100053.38
2023-02-18T05:53:58.829Z,100069.59
2023-02-18T05:56:00.308Z,100052.31
2023-02-18T05:58:01.690Z,100078.63
2023-02-18T06:00:05.431Z,100067.09
2023-02-18T06:02:06.960Z,100070.28
2023-02-18T06:04:09.051Z,100089.97
2023-02-18T06:06:10.955Z,100087.28
2023-02-18T06:08:12.722Z,100089.59
2023-02-18T06:10:14.258Z,100106.53
2023-02-18T06:12:15.652Z,100102.34
2023-02-18T06:14:17.380Z,100108.44
2023-02-18T06:16:18.834Z,100092.06
2023-02-18T06:18:20.792Z,100113.13
2023-02-18T06:20:22.380Z,100102.41
2023-02-18T06:22:23.840Z,100095.47
2023-02-18T06:24:25.263Z,100128.53
2023-02-18T06:26:27.199Z,100105.13
2023-02-18T06:28:28.666Z,100103.72
2023-02-18T06:30:30.131Z,100112.81
2023-02-18T06:32:31.747Z,100129.59
2023-02-18T06:34:33.186Z,100078.13
2023-02-18T06:36:34.597Z,100090.22
2023-02-18T06:38:36.815Z,100131.72
2023-02-18T06:40:38.199Z,100117.72
2023-02-18T06:42:39.724Z,100116.19
2023-02-18T06:44:41.390Z,100132.41
2023-02-18T06:46:44.540Z,100109.09
2023-02-18T06:48:46.077Z,100135.34
2023-02-18T06:50:48.672Z,100140.31
2023-02-18T06:52:50.061Z,100133.06
2023-02-18T06:54:51.494Z,100142.09
2023-02-18T06:56:53.023Z,100144.66
2023-02-18T06:58:54.449Z,100137.69
2023-02-18T07:00:55.886Z,100146.72
2023-02-18T07:02:57.369Z,100146.72
2023-02-18T07:04:58.886Z,100121.19
2023-02-18T07:07:00.328Z,100121.00
2023-02-18T07:09:01.926Z,100140.19
2023-02-18T07:11:04.090Z,100143.97
2023-02-18T07:13:06.025Z,100148.31
2023-02-18T07:15:07.820Z,100137.38
2023-02-18T07:17:09.234Z,100142.66
2023-02-18T07:19:10.666Z,100153.63
2023-02-18T07:21:12.185Z,100121.06
2023-02-18T07:23:13.562Z,100139.59
2023-02-18T07:25:16.344Z,100160.22
2023-02-18T07:27:17.754Z,100152.75
2023-02-18T07:29:19.145Z,100163.56
2023-02-18T07:31:20.660Z,100152.75
2023-02-18T07:33:22.293Z,100158.25
2023-02-18T07:35:23.726Z,100161.06
2023-02-18T07:37:25.134Z,100153.88
2023-02-18T07:39:26.547Z,100149.53
2023-02-18T07:41:27.958Z,100145.22
2023-02-18T07:43:29.409Z,100157.72
2023-02-18T07:45:30.951Z,100152.34
2023-02-18T07:47:32.397Z,100155.56
2023-02-18T07:49:34.510Z,100116.03
2023-02-18T07:51:36.024Z,100143.50
2023-02-18T07:53:38.450Z,100149.63
2023-02-18T07:55:39.912Z,100132.06
2023-02-18T07:57:41.525Z,100166.28
2023-02-18T07:59:42.928Z,100159.66
2023-02-18T08:01:45.183Z,100165.25
2023-02-18T08:03:46.857Z,100129.19
2023-02-18T08:05:49.810Z,100164.88
2023-02-18T08:07:51.231Z,100162.53
2023-02-18T08:09:52.798Z,100162.13
2023-02-18T08:11:54.202Z,100170.19
2023-02-18T08:13:55.614Z,100170.19
2023-02-18T08:15:58.139Z,100158.53
2023-02-18T08:17:59.613Z,100180.00
2023-02-18T08:20:01.026Z,100162.13
2023-02-18T08:22:03.144Z,100166.00
2023-02-18T08:24:04.677Z,100160.75
2023-02-18T08:26:07.195Z,100164.56
2023-02-18T08:28:08.952Z,100162.25
2023-02-18T08:30:11.080Z,100168.66
2023-02-18T08:32:12.563Z,100149.09
2023-02-18T08:34:14.439Z,100167.28
2023-02-18T08:36:15.958Z,100170.97
2023-02-18T08:38:17.768Z,100178.91
2023-02-18T08:40:19.536Z,100148.69
2023-02-18T08:42:21.084Z,100151.38
2023-02-18T08:44:22.491Z,100155.69
2023-02-18T08:46:33.322Z,100143.59
2023-02-18T08:48:37.642Z,100158.22
2023-02-18T08:50:39.384Z,100164.56
2023-02-18T08:52:41.069Z,100164.31
2023-02-18T08:54:42.514Z,100177.19
2023-02-18T08:56:43.959Z,100184.28
2023-02-18T08:58:45.575Z,100173.84
2023-02-18T09:00:47.037Z,100134.16
2023-02-18T09:02:48.482Z,100156.25
2023-02-18T09:04:50.015Z,100178.31
2023-02-18T09:06:51.394Z,100171.41
2023-02-18T09:08:52.819Z,100159.75
2023-02-18T09:10:58.790Z,100167.78
2023-02-18T09:13:00.177Z,100161.84
2023-02-18T09:15:02.249Z,100169.19
2023-02-18T09:17:03.712Z,100169.91
2023-02-18T09:19:05.644Z,100165.16
2023-02-18T09:21:09.704Z,100174.34
2023-02-18T09:23:11.590Z,100176.41
2023-02-18T09:25:13.000Z,100160.03
2023-02-18T09:27:14.552Z,100149.31
2023-02-18T09:29:16.306Z,100160.31
2023-02-18T09:31:20.513Z,100159.75
2023-02-18T09:33:22.471Z,100162.94
2023-02-18T09:35:23.907Z,100166.97
2023-02-18T09:37:25.305Z,100173.50
2023-02-18T09:39:26.918Z,100169.31
2023-02-18T09:41:48.103Z,100177.50
2023-02-18T09:43:54.012Z,100175.41
2023-02-18T09:45:56.609Z,100168.03
2023-02-18T09:47:59.472Z,100148.75
2023-02-18T09:50:19.165Z,100180.41
2023-02-18T09:52:24.293Z,100170.16
2023-02-18T09:54:27.352Z,100183.19
2023-02-18T09:56:33.592Z,100177.50
2023-02-18T09:58:35.131Z,100173.44
2023-02-18T10:00:40.647Z,100181.00
2023-02-18T10:02:53.073Z,100182.81
2023-02-18T10:04:56.182Z,100200.81
2023-02-18T10:06:59.118Z,100192.75
2023-02-18T10:09:04.727Z,100192.06
2023-02-18T10:11:17.650Z,100192.75
2023-02-18T10:13:22.449Z,100182.75
2023-02-18T10:15:29.137Z,100176.06
2023-02-18T10:17:33.385Z,100203.84
2023-02-18T10:19:38.668Z,100190.53
2023-02-18T10:21:40.525Z,100144.00
2023-02-18T10:23:53.414Z,100187.50
2023-02-18T10:25:56.120Z,100192.66
2023-02-18T10:28:00.193Z,100186.63
2023-02-18T10:30:19.768Z,100203.16
2023-02-18T10:32:21.434Z,100204.72
2023-02-18T10:34:46.315Z,100184.44
2023-02-18T10:36:54.168Z,100193.47
2023-02-18T10:39:21.119Z,100192.19
2023-02-18T10:41:48.479Z,100205.22
2023-02-18T10:44:20.641Z,100213.88
2023-02-18T10:46:45.419Z,100183.63
2023-02-18T10:48:52.707Z,100205.28
2023-02-18T10:50:55.066Z,100209.72
2023-02-18T10:53:01.603Z,100197.38
2023-02-18T10:55:07.143Z,100212.22
2023-02-18T10:57:18.488Z,100204.47
2023-02-18T10:59:31.964Z,100195.84
2023-02-18T11:01:33.412Z,100186.81
2023-02-18T11:03:45.005Z,100181.41
2023-02-18T11:05:50.322Z,100171.97
2023-02-18T11:07:55.980Z,100186.53
2023-02-18T11:10:00.594Z,100188.63
2023-02-18T11:12:08.653Z,100193.34
2023-02-18T11:14:34.287Z,100187.22
2023-02-18T11:16:46.685Z,100212.22
2023-02-18T11:18:48.252Z,100190.16
2023-02-18T11:20:57.575Z,100184.19
2023-02-18T11:23:08.184Z,100183.91
2023-02-18T11:25:24.499Z,100153.25
2023-02-18T11:27:30.655Z,100160.84
2023-02-18T11:29:33.426Z,100157.53
2023-02-18T11:31:47.660Z,100160.47
2023-02-18T11:34:01.584Z,100176.13
2023-02-18T11:36:10.130Z,100158.34
2023-02-18T11:38:29.635Z,100170.69
2023-02-18T11:40:36.503Z,100182.47
2023-02-18T11:42:37.958Z,100127.53
2023-02-18T11:44:51.256Z,100155.00
2023-02-18T11:47:04.299Z,100158.22
2023-02-18T11:49:22.051Z,100159.44
2023-02-18T11:51:26.725Z,100145.28
2023-02-18T11:53:35.134Z,100144.88
2023-02-18T11:55:36.669Z,100149.69
2023-02-18T11:57:42.420Z,100141.78
2023-02-18T11:59:44.520Z,100145.97
2023-02-18T12:01:50.457Z,100131.06
2023-02-18T12:04:07.807Z,100145.38
2023-02-18T12:06:18.484Z,100135.69
2023-02-18T12:08:25.431Z,100135.53
2023-02-18T12:10:36.705Z,100097.28
2023-02-18T12:12:54.492Z,100119.97
2023-02-18T12:14:56.689Z,100119.13
2023-02-18T12:17:26.495Z,100123.81
2023-02-18T12:19:40.110Z,100115.91
2023-02-18T12:21:41.598Z,100116.03
2023-02-18T12:23:58.540Z,100103.44
2023-02-18T12:26:22.778Z,100095.84
2023-02-18T12:28:30.869Z,100108.78
2023-02-18T12:30:45.965Z,100101.50
2023-02-18T12:33:07.575Z,100097.44
2023-02-18T12:35:14.957Z,100089.84
2023-02-18T12:37:28.496Z,100099.22
2023-02-18T12:39:41.513Z,100100.53
2023-02-18T12:42:22.208Z,100089.59
2023-02-18T12:44:39.942Z,100078.59
2023-02-18T12:46:44.293Z,100084.91
2023-02-18T12:49:00.681Z,100093.34
2023-02-18T12:51:42.559Z,100099.56
2023-02-18T12:53:56.171Z,100098.09
2023-02-18T12:56:15.928Z,100107.00
2023-02-18T12:58:23.667Z,100107.84
2023-02-18T13:00:42.555Z,100110.16
2023-02-18T13:03:06.024Z,100107.84
2023-02-18T13:05:38.372Z,100086.44
2023-02-18T13:08:03.080Z,100105.47
2023-02-18T13:10:20.085Z,100097.31
2023-02-18T13:12:33.506Z,100082.06
2023-02-18T13:14:58.075Z,100096.78
2023-02-18T13:17:02.773Z,100096.91
2023-02-18T13:19:21.048Z,100088.16
2023-02-18T13:21:23.634Z,100095.63
2023-02-18T13:23:30.202Z,100083.97
2023-02-18T13:25:37.782Z,100072.06
2023-02-18T13:27:48.148Z,100085.13
2023-02-18T13:30:15.742Z,100095.22
2023-02-18T13:32:26.954Z,100071.38
2023-02-18T13:34:40.819Z,100094.25
2023-02-18T13:37:11.333Z,100087.06
2023-02-18T13:39:17.536Z,100087.88
2023-02-18T13:41:20.438Z,100075.41
2023-02-18T13:43:27.680Z,100082.88
2023-02-18T13:45:32.446Z,100075.81
2023-02-18T13:47:38.202Z,100069.16
2023-02-18T13:49:40.333Z,100071.25
2023-02-18T13:51:46.393Z,100060.44
2023-02-18T13:53:51.641Z,100047.38
2023-02-18T13:55:58.341Z,100057.63
2023-02-18T13:58:00.811Z,100060.97
2023-02-18T14:00:06.090Z,100062.75
2023-02-18T14:02:27.634Z,100071.78
2023-02-18T14:04:41.484Z,100065.41
2023-02-18T14:07:28.916Z,100057.88
2023-02-18T14:09:42.905Z,100044.75
2023-02-18T14:11:48.613Z,100037.66
2023-02-18T14:13:56.000Z,100025.34
2023-02-18T14:15:59.866Z,100032.81
2023-02-18T14:18:13.514Z,100035.44
2023-02-18T14:20:20.841Z,100029.50
2023-02-18T14:22:51.920Z,100034.34
2023-02-18T14:25:03.402Z,100032.53
2023-02-18T14:27:15.736Z,100013.41
2023-02-18T14:29:30.952Z,100044.72
2023-02-18T14:31:49.937Z,100039.63
2023-02-18T14:34:00.372Z,100040.03
2023-02-18T14:36:23.535Z,100042.22
2023-02-18T14:38:59.079Z,100043.03
2023-02-18T14:41:37.615Z,100044.94
2023-02-18T14:44:12.738Z,100040.31
2023-02-18T14:46:25.908Z,100039.13
2023-02-18T14:48:43.939Z,100027.66
2023-02-18T14:50:49.424Z,100037.22
2023-02-18T14:53:02.785Z,100034.72
2023-02-18T14:55:07.242Z,100022.75
2023-02-18T14:57:16.195Z,100032.34
2023-02-18T14:59:18.629Z,100042.16
2023-02-18T15:01:29.264Z,100052.28
2023-02-18T15:03:30.794Z,100012.38
2023-02-18T15:05:36.988Z,100031.91
2023-02-18T15:07:38.494Z,100042.69
2023-02-18T15:09:52.384Z,100047.22
2023-02-18T15:12:06.787Z,100035.50
2023-02-18T15:14:19.777Z,100021.22
2023-02-18T15:16:33.436Z,100040.31
2023-02-18T15:18:38.076Z,100039.09
2023-02-18T15:20:40.228Z,100040.34
2023-02-18T15:22:41.992Z,100041.34
2023-02-18T15:24:43.707Z,100040.81
2023-02-18T15:26:47.869Z,100039.66
2023-02-18T15:29:01.998Z,100033.47
2023-02-18T15:31:04.216Z,100037.41
2023-02-18T15:33:12.049Z,100033.84
2023-02-18T15:35:17.935Z,100037.63
2023-02-18T15:37:19.608Z,100032.41
2023-02-18T15:39:21.940Z,100039.28
2023-02-18T15:41:23.668Z,100046.94
2023-02-18T15:43:26.374Z,100023.41
2023-02-18T15:45:44.263Z,100037.69
2023-02-18T15:47:48.972Z,100047.56
2023-02-18T15:49:54.426Z,100038.75
2023-02-18T15:52:00.636Z,100033.06
2023-02-18T15:54:03.491Z,100044.41
2023-02-18T15:56:39.826Z,100043.78
2023-02-18T15:58:42.082Z,100043.69
2023-02-18T16:00:58.425Z,100044.03
2023-02-18T16:03:20.856Z,100046.91
2023-02-18T16:05:27.400Z,100045.75
2023-02-18T16:07:49.532Z,100024.03
2023-02-18T16:09:57.523Z,100016.28
2023-02-18T16:12:04.360Z,100036.41
2023-02-18T16:14:06.409Z,100035.81
2023-02-18T16:16:22.854Z,100029.03
2023-02-18T16:18:42.396Z,100020.69
2023-02-18T16:20:54.341Z,100021.91
2023-02-18T16:23:00.579Z,100027.16
2023-02-18T16:25:14.796Z,100024.63
2023-02-18T16:27:16.599Z,100032.47
2023-02-18T16:29:40.190Z,100017.13
2023-02-18T16:31:42.668Z,100010.69
2023-02-18T16:33:44.171Z,100002.69
2023-02-18T16:35:50.772Z,100024.25
2023-02-18T16:37:53.862Z,100023.19
2023-02-18T16:39:55.250Z,99996.34
2023-02-18T16:41:56.640Z,100022.69
2023-02-18T16:43:58.360Z,100019.84
2023-02-18T16:46:09.061Z,100007.44
2023-02-18T16:48:35.825Z,100022.06
2023-02-18T16:50:37.885Z,100026.47
2023-02-18T16:52:39.341Z,100024.59
2023-02-18T16:54:40.770Z,100026.25
2023-02-18T16:56:42.280Z,100010.53
2023-02-18T16:58:44.140Z,100036.63
2023-02-18T17:00:46.462Z,100037.00
2023-02-18T17:02:56.161Z,100034.53
2023-02-18T17:04:57.607Z,99998.19
2023-02-18T17:06:58.994Z,100024.66
2023-02-18T17:09:00.833Z,100025.97
2023-02-18T17:11:02.261Z,100021.91
2023-02-18T17:13:03.673Z,100025.25
2023-02-18T17:15:13.834Z,100030.22
2023-02-18T17:17:15.255Z,100004.16
2023-02-18T17:19:19.681Z,100017.72
2023-02-18T17:21:24.080Z,100003.19
2023-02-18T17:23:25.474Z,100012.97
2023-02-18T17:25:34.616Z,100018.56
2023-02-18T17:27:37.389Z,100032.16
2023-02-18T17:29:38.785Z,100035.03
2023-02-18T17:31:43.837Z,100015.81
2023-02-18T17:33:46.525Z,100024.50
2023-02-18T17:35:47.946Z,100028.16
2023-02-18T17:37:49.817Z,100030.66
2023-02-18T17:39:52.824Z,100035.94
2023-02-18T17:41:54.207Z,100022.13
2023-02-18T17:43:55.624Z,100025.38
2023-02-18T17:45:57.782Z,100030.13
2023-02-18T17:48:00.589Z,100029.84
2023-02-18T17:50:02.018Z,100026.78
2023-02-18T17:52:04.126Z,100032.84
2023-02-18T17:54:17.609Z,100020.00
2023-02-18T17:56:19.009Z,100040.13
2023-02-18T17:58:20.638Z,100036.69
2023-02-18T18:00:28.427Z,100054.81
2023-02-18T18:02:29.844Z,100047.28
2023-02-18T18:04:31.457Z,100029.91
2023-02-18T18:06:32.897Z,100061.50
2023-02-18T18:08:34.287Z,100066.25
2023-02-18T18:10:44.985Z,100069.22
2023-02-18T18:12:46.390Z,100047.06
2023-02-18T18:14:47.782Z,100029.44
2023-02-18T18:16:49.400Z,100023.22
2023-02-18T18:18:50.868Z,100042.06
2023-02-18T18:20:55.881Z,100021.19
2023-02-18T18:22:59.835Z,100057.53
2023-02-18T18:25:01.251Z,100072.91
2023-02-18T18:27:02.684Z,100066.69
2023-02-18T18:29:04.231Z,100070.16
2023-02-18T18:31:05.649Z,100078.63
2023-02-18T18:33:26.082Z,100059.19
2023-02-18T18:35:31.940Z,100075.41
2023-02-18T18:37:33.348Z,100078.13
2023-02-18T18:39:34.755Z,100048.22
2023-02-18T18:41:36.476Z,100071.91
2023-02-18T18:43:37.859Z,100075.00
2023-02-18T18:45:39.388Z,100076.66
2023-02-18T18:47:40.858Z,100097.75
2023-02-18T18:49:42.260Z,100089.06
2023-02-18T18:51:43.784Z,100100.78
2023-02-18T18:53:45.457Z,100084.06
2023-02-18T18:55:48.467Z,100110.41
2023-02-18T18:57:50.470Z,100097.91
2023-02-18T18:59:52.081Z,100110.63
2023-02-18T19:01:54.504Z,100109.94
2023-02-18T19:03:56.143Z,100112.94
2023-02-18T19:05:58.215Z,100100.88
2023-02-18T19:08:00.352Z,100098.47
2023-02-18T19:10:01.782Z,100111.38
2023-02-18T19:12:03.491Z,100113.53
2023-02-18T19:14:04.900Z,100109.59
2023-02-18T19:16:08.170Z,100099.00
2023-02-18T19:18:14.911Z,100097.28
2023-02-18T19:20:21.682Z,100112.16
2023-02-18T19:22:23.106Z,100114.91
2023-02-18T19:24:25.355Z,100122.28
2023-02-18T19:26:28.033Z,100131.09
2023-02-18T19:28:31.452Z,100126.78
2023-02-18T19:30:35.667Z,100140.63
2023-02-18T19:32:37.255Z,100125.94
2023-02-18T19:34:38.628Z,100121.19
2023-02-18T19:36:40.244Z,100146.13
2023-02-18T19:38:41.633Z,100146.66
2023-02-18T19:40:44.224Z,100146.59
2023-02-18T19:42:45.835Z,100150.69
2023-02-18T19:44:47.361Z,100152.56
2023-02-18T19:46:48.772Z,100153.09
2023-02-18T19:48:51.512Z,100133.31
2023-02-18T19:50:53.051Z,100155.19
2023-02-18T19:52:55.930Z,100153.66
2023-02-18T19:54:57.658Z,100163.47
2023-02-18T19:56:59.152Z,100159.16
2023-02-18T19:59:00.589Z,100161.47
2023-02-18T20:01:02.573Z,100163.47
2023-02-18T20:03:04.076Z,100173.00
2023-02-18T20:05:06.304Z,100176.56
2023-02-18T20:07:07.925Z,100177.81
2023-02-18T20:09:09.338Z,100186.28
2023-02-18T20:11:11.190Z,100163.28
2023-02-18T20:13:12.682Z,100195.84
2023-02-18T20:15:14.314Z,100180.84
2023-02-18T20:17:16.176Z,100213.50
2023-02-18T20:19:17.809Z,100207.22
2023-02-18T20:21:19.487Z,100191.06
2023-02-18T20:23:20.858Z,100199.47
2023-02-18T20:25:22.328Z,100225.75
2023-02-18T20:27:23.914Z,100182.75
2023-02-18T20:29:26.089Z,100218.63
2023-02-18T20:31:27.763Z,100220.78
2023-02-18T20:33:29.296Z,100229.25
2023-02-18T20:35:30.728Z,100228.91
2023-02-18T20:37:32.771Z,100236.41
2023-02-18T20:39:34.232Z,100234.72
2023-02-18T20:41:35.800Z,100214.63
2023-02-18T20:43:37.975Z,100245.19
2023-02-18T20:45:39.355Z,100239.03
2023-02-18T20:47:40.828Z,100237.28
2023-02-18T20:49:43.249Z,100240.00
2023-02-18T20:51:45.120Z,100236.31
2023-02-18T20:53:48.541Z,100241.69
2023-02-18T20:55:50.097Z,100238.75
2023-02-18T20:57:51.488Z,100234.00
2023-02-18T20:59:52.875Z,100229.91
2023-02-18T21:01:54.486Z,100210.50
2023-02-18T21:03:55.908Z,100237.81
2023-02-18T21:06:00.091Z,100221.00
2023-02-18T21:08:01.607Z,100250.81
2023-02-18T21:10:03.068Z,100258.69
2023-02-18T21:12:04.809Z,100264.97
2023-02-18T21:14:06.364Z,100276.09
2023-02-18T21:16:08.697Z,100277.53
2023-02-18T21:18:10.291Z,100262.81
2023-02-18T21:20:11.811Z,100285.28
2023-02-18T21:22:13.224Z,100288.63
2023-02-18T21:24:14.959Z,100265.91
2023-02-18T21:26:19.654Z,100294.47
2023-02-18T21:28:21.059Z,100280.03
2023-02-18T21:30:23.042Z,100304.00
2023-02-18T21:32:24.749Z,100303.03
2023-02-18T21:34:26.240Z,100307.81
2023-02-18T21:36:28.136Z,100301.00
2023-02-18T21:38:29.717Z,100319.84
2023-02-18T21:40:31.776Z,100311.81
2023-02-18T21:42:33.281Z,100322.69
2023-02-18T21:44:42.236Z,100328.78
2023-02-18T21:46:44.284Z,100298.00
2023-02-18T21:48:45.995Z,100323.19
2023-02-18T21:50:48.429Z,100322.81
2023-02-18T21:52:49.899Z,100333.19
2023-02-18T21:54:53.004Z,100320.19
2023-02-18T21:56:55.396Z,100336.84
2023-02-18T21:58:56.855Z,100336.34
2023-02-18T22:00:58.562Z,100328.88
2023-02-18T22:03:00.353Z,100318.94
2023-02-18T22:05:01.781Z,100337.03
2023-02-18T22:07:03.386Z,100340.94
2023-02-18T22:09:06.189Z,100338.41
2023-02-18T22:11:07.749Z,100340.81
2023-02-18T22:13:09.344Z,100340.19
2023-02-18T22:15:11.163Z,100342.94
2023-02-18T22:17:13.678Z,100327.66
2023-02-18T22:19:15.388Z,100334.63
2023-02-18T22:21:17.369Z,100341.50
2023-02-18T22:23:19.341Z,100345.72
2023-02-18T22:25:20.867Z,100344.41
2023-02-18T22:27:22.472Z,100341.03
2023-02-18T22:29:24.350Z,100330.16
2023-02-18T22:31:28.142Z,100343.47
2023-02-18T22:33:29.984Z,100326.19
2023-02-18T22:35:31.394Z,100333.09
2023-02-18T22:37:34.667Z,100342.28
2023-02-18T22:39:36.411Z,100352.69
2023-02-18T22:41:38.114Z,100348.06
2023-02-18T22:43:39.918Z,100339.38
2023-02-18T22:45:41.649Z,100352.97
2023-02-18T22:47:43.095Z,100375.59
2023-02-18T22:49:44.479Z,100379.69
2023-02-18T22:51:46.142Z,100384.84
2023-02-18T22:53:47.684Z,100386.75
2023-02-18T22:55:49.069Z,100378.28
2023-02-18T22:57:50.780Z,100389.91
2023-02-18T22:59:52.176Z,100382.44
2023-02-18T23:01:53.620Z,100387.38
2023-02-18T23:03:56.888Z,100407.34
2023-02-18T23:06:02.867Z,100406.47
2023-02-18T23:08:06.182Z,100383.44
2023-02-18T23:10:08.095Z,100394.09
2023-02-18T23:12:09.513Z,100382.38
2023-02-18T23:14:11.018Z,100366.13
2023-02-18T23:16:16.080Z,100411.47
2023-02-18T23:18:17.545Z,100382.03
2023-02-18T23:20:19.035Z,100394.00
2023-02-18T23:22:26.407Z,100379.66
2023-02-18T23:24:27.791Z,100374.44
2023-02-18T23:26:29.174Z,100386.13
2023-02-18T23:28:30.898Z,100366.28
2023-02-18T23:30:32.429Z,100359.34
2023-02-18T23:32:33.905Z,100397.56
2023-02-18T23:34:36.069Z,100393.91
2023-02-18T23:36:37.594Z,100382.81
2023-02-18T23:38:39.171Z,100382.00
2023-02-18T23:40:40.736Z,100370.41
2023-02-18T23:42:42.143Z,100399.59
2023-02-18T23:44:43.570Z,100407.16
2023-02-18T23:46:45.467Z,100411.44
2023-02-18T23:48:47.720Z,100390.06
2023-02-18T23:50:49.112Z,100400.03
2023-02-18T23:52:50.662Z,100397.50
2023-02-18T23:54:52.070Z,100399.19
2023-02-18T23:56:53.748Z,100393.81
2023-02-18T23:59:00.439Z,100398.97
